sensor_id;sensor_type;location;lat;lon;timestamp;P1;durP1;ratioP1;P2;durP2;ratioP2
25503;SDS011;13410;52.114;5.718;2023-02-28T00:00:10;14.75;;;8.13;;
25503;SDS011;13410;52.114;5.718;2023-02-28T00:02:38;20.67;;;11.30;;
25503;SDS011;13410;52.114;5.718;2023-02-28T00:05:05;19.45;;;11.50;;
25503;SDS011;13410;52.114;5.718;2023-02-28T00:07:31;18.25;;;10.30;;
25503;SDS011;13410;52.114;5.718;2023-02-28T00:09:58;16.25;;;9.90;;
25503;SDS011;13410;52.114;5.718;2023-02-28T00:12:24;16.00;;;8.95;;
25503;SDS011;13410;52.114;5.718;2023-02-28T00:14:50;13.93;;;8.40;;
25503;SDS011;13410;52.114;5.718;2023-02-28T00:17:16;19.42;;;11.18;;
25503;SDS011;13410;52.114;5.718;2023-02-28T00:19:46;19.00;;;9.98;;
25503;SDS011;13410;52.114;5.718;2023-02-28T00:22:16;19.23;;;11.80;;
25503;SDS011;13410;52.114;5.718;2023-02-28T00:24:43;18.85;;;10.23;;
25503;SDS011;13410;52.114;5.718;2023-02-28T00:27:08;12.15;;;6.60;;
25503;SDS011;13410;52.114;5.718;2023-02-28T00:29:35;11.43;;;6.60;;
25503;SDS011;13410;52.114;5.718;2023-02-28T00:32:01;12.80;;;6.13;;
25503;SDS011;13410;52.114;5.718;2023-02-28T00:34:27;13.02;;;5.78;;
25503;SDS011;13410;52.114;5.718;2023-02-28T00:36:52;11.70;;;6.32;;
25503;SDS011;13410;52.114;5.718;2023-02-28T00:39:18;10.27;;;5.50;;
25503;SDS011;13410;52.114;5.718;2023-02-28T00:41:44;8.80;;;5.13;;
25503;SDS011;13410;52.114;5.718;2023-02-28T00:44:09;8.93;;;5.40;;
25503;SDS011;13410;52.114;5.718;2023-02-28T00:46:36;10.10;;;6.00;;
25503;SDS011;13410;52.114;5.718;2023-02-28T00:49:01;9.25;;;5.20;;
25503;SDS011;13410;52.114;5.718;2023-02-28T00:51:27;10.77;;;5.45;;
25503;SDS011;13410;52.114;5.718;2023-02-28T00:53:52;10.88;;;5.38;;
25503;SDS011;13410;52.114;5.718;2023-02-28T00:56:18;9.57;;;5.45;;
25503;SDS011;13410;52.114;5.718;2023-02-28T00:58:44;8.68;;;5.15;;
25503;SDS011;13410;52.114;5.718;2023-02-28T01:01:09;10.27;;;4.88;;
25503;SDS011;13410;52.114;5.718;2023-02-28T01:03:35;7.40;;;4.40;;
25503;SDS011;13410;52.114;5.718;2023-02-28T01:06:00;9.07;;;4.85;;
25503;SDS011;13410;52.114;5.718;2023-02-28T01:08:26;9.45;;;4.78;;
25503;SDS011;13410;52.114;5.718;2023-02-28T01:10:52;7.70;;;4.72;;
25503;SDS011;13410;52.114;5.718;2023-02-28T01:13:18;9.00;;;5.30;;
25503;SDS011;13410;52.114;5.718;2023-02-28T01:15:51;9.73;;;5.88;;
25503;SDS011;13410;52.114;5.718;2023-02-28T01:18:19;8.43;;;5.03;;
25503;SDS011;13410;52.114;5.718;2023-02-28T01:20:46;9.77;;;6.47;;
25503;SDS011;13410;52.114;5.718;2023-02-28T01:23:11;12.98;;;6.63;;
25503;SDS011;13410;52.114;5.718;2023-02-28T01:25:37;10.15;;;6.10;;
25503;SDS011;13410;52.114;5.718;2023-02-28T01:28:03;8.38;;;5.72;;
25503;SDS011;13410;52.114;5.718;2023-02-28T01:30:30;8.50;;;5.40;;
25503;SDS011;13410;52.114;5.718;2023-02-28T01:32:56;10.35;;;5.72;;
25503;SDS011;13410;52.114;5.718;2023-02-28T01:35:21;7.97;;;5.25;;
25503;SDS011;13410;52.114;5.718;2023-02-28T01:37:47;12.95;;;6.57;;
25503;SDS011;13410;52.114;5.718;2023-02-28T01:40:13;11.38;;;5.90;;
25503;SDS011;13410;52.114;5.718;2023-02-28T01:42:39;10.18;;;5.93;;
25503;SDS011;13410;52.114;5.718;2023-02-28T01:45:22;11.82;;;5.50;;
25503;SDS011;13410;52.114;5.718;2023-02-28T01:47:52;9.02;;;5.25;;
25503;SDS011;13410;52.114;5.718;2023-02-28T01:50:26;9.10;;;4.65;;
25503;SDS011;13410;52.114;5.718;2023-02-28T01:52:54;8.02;;;4.35;;
25503;SDS011;13410;52.114;5.718;2023-02-28T01:55:24;10.52;;;4.43;;
25503;SDS011;13410;52.114;5.718;2023-02-28T01:57:54;7.40;;;4.47;;
25503;SDS011;13410;52.114;5.718;2023-02-28T02:00:22;9.02;;;4.65;;
25503;SDS011;13410;52.114;5.718;2023-02-28T02:02:52;7.43;;;4.57;;
25503;SDS011;13410;52.114;5.718;2023-02-28T02:05:23;8.20;;;4.88;;
25503;SDS011;13410;52.114;5.718;2023-02-28T02:07:57;8.50;;;4.82;;
25503;SDS011;13410;52.114;5.718;2023-02-28T02:10:32;8.77;;;4.97;;
25503;SDS011;13410;52.114;5.718;2023-02-28T02:13:13;8.10;;;4.90;;
25503;SDS011;13410;52.114;5.718;2023-02-28T02:15:41;7.88;;;4.30;;
25503;SDS011;13410;52.114;5.718;2023-02-28T02:18:35;11.45;;;5.68;;
25503;SDS011;13410;52.114;5.718;2023-02-28T02:21:13;9.50;;;5.05;;
25503;SDS011;13410;52.114;5.718;2023-02-28T02:24:43;9.90;;;4.60;;
25503;SDS011;13410;52.114;5.718;2023-02-28T02:27:08;7.28;;;4.35;;
25503;SDS011;13410;52.114;5.718;2023-02-28T02:30:06;6.63;;;3.95;;
25503;SDS011;13410;52.114;5.718;2023-02-28T02:40:37;10.05;;;4.22;;
25503;SDS011;13410;52.114;5.718;2023-02-28T02:43:52;5.85;;;3.40;;
25503;SDS011;13410;52.114;5.718;2023-02-28T02:46:12;8.25;;;4.32;;
25503;SDS011;13410;52.114;5.718;2023-02-28T02:48:45;9.02;;;4.20;;
25503;SDS011;13410;52.114;5.718;2023-02-28T02:51:13;6.80;;;4.00;;
25503;SDS011;13410;52.114;5.718;2023-02-28T02:53:44;8.07;;;4.10;;
25503;SDS011;13410;52.114;5.718;2023-02-28T02:56:15;7.63;;;4.00;;
25503;SDS011;13410;52.114;5.718;2023-02-28T02:58:44;7.63;;;3.80;;
25503;SDS011;13410;52.114;5.718;2023-02-28T03:01:15;10.35;;;4.30;;
25503;SDS011;13410;52.114;5.718;2023-02-28T03:03:53;7.40;;;4.53;;
25503;SDS011;13410;52.114;5.718;2023-02-28T03:06:23;9.65;;;3.88;;
25503;SDS011;13410;52.114;5.718;2023-02-28T03:08:49;9.70;;;4.13;;
25503;SDS011;13410;52.114;5.718;2023-02-28T03:11:15;7.32;;;4.35;;
25503;SDS011;13410;52.114;5.718;2023-02-28T03:16:59;7.60;;;4.43;;
25503;SDS011;13410;52.114;5.718;2023-02-28T03:27:54;6.05;;;4.20;;
25503;SDS011;13410;52.114;5.718;2023-02-28T03:30:25;6.25;;;4.10;;
25503;SDS011;13410;52.114;5.718;2023-02-28T03:33:10;7.03;;;4.28;;
25503;SDS011;13410;52.114;5.718;2023-02-28T03:36:04;8.98;;;4.40;;
25503;SDS011;13410;52.114;5.718;2023-02-28T03:38:43;7.35;;;4.60;;
25503;SDS011;13410;52.114;5.718;2023-02-28T03:41:22;8.07;;;5.03;;
25503;SDS011;13410;52.114;5.718;2023-02-28T03:43:55;11.18;;;4.97;;
25503;SDS011;13410;52.114;5.718;2023-02-28T03:46:25;8.43;;;5.40;;
25503;SDS011;13410;52.114;5.718;2023-02-28T03:51:27;8.82;;;5.32;;
25503;SDS011;13410;52.114;5.718;2023-02-28T03:53:54;9.15;;;4.90;;
25503;SDS011;13410;52.114;5.718;2023-02-28T03:56:27;7.70;;;4.82;;
25503;SDS011;13410;52.114;5.718;2023-02-28T04:01:47;7.35;;;4.10;;
25503;SDS011;13410;52.114;5.718;2023-02-28T04:04:14;8.68;;;4.22;;
25503;SDS011;13410;52.114;5.718;2023-02-28T04:06:40;6.18;;;4.15;;
25503;SDS011;13410;52.114;5.718;2023-02-28T04:09:08;6.85;;;3.90;;
25503;SDS011;13410;52.114;5.718;2023-02-28T04:11:36;8.23;;;4.03;;
25503;SDS011;13410;52.114;5.718;2023-02-28T04:14:18;5.65;;;3.35;;
25503;SDS011;13410;52.114;5.718;2023-02-28T04:16:44;6.53;;;3.90;;
25503;SDS011;13410;52.114;5.718;2023-02-28T04:19:10;5.18;;;3.25;;
25503;SDS011;13410;52.114;5.718;2023-02-28T04:21:44;8.75;;;3.30;;
25503;SDS011;13410;52.114;5.718;2023-02-28T04:24:12;5.72;;;3.30;;
25503;SDS011;13410;52.114;5.718;2023-02-28T04:26:39;6.63;;;3.33;;
25503;SDS011;13410;52.114;5.718;2023-02-28T04:29:13;9.57;;;3.40;;
25503;SDS011;13410;52.114;5.718;2023-02-28T04:31:43;7.70;;;3.03;;
25503;SDS011;13410;52.114;5.718;2023-02-28T04:34:08;5.32;;;3.35;;
25503;SDS011;13410;52.114;5.718;2023-02-28T04:36:34;5.18;;;3.33;;
25503;SDS011;13410;52.114;5.718;2023-02-28T04:39:00;6.32;;;3.58;;
25503;SDS011;13410;52.114;5.718;2023-02-28T04:41:25;5.10;;;3.30;;
25503;SDS011;13410;52.114;5.718;2023-02-28T04:43:51;5.55;;;3.17;;
25503;SDS011;13410;52.114;5.718;2023-02-28T04:46:17;9.68;;;3.78;;
25503;SDS011;13410;52.114;5.718;2023-02-28T04:48:43;5.57;;;3.25;;
25503;SDS011;13410;52.114;5.718;2023-02-28T04:51:13;6.13;;;3.53;;
25503;SDS011;13410;52.114;5.718;2023-02-28T04:56:07;5.38;;;3.30;;
25503;SDS011;13410;52.114;5.718;2023-02-28T04:58:33;7.57;;;3.38;;
25503;SDS011;13410;52.114;5.718;2023-02-28T05:01:03;5.75;;;3.22;;
25503;SDS011;13410;52.114;5.718;2023-02-28T05:03:37;7.47;;;3.45;;
25503;SDS011;13410;52.114;5.718;2023-02-28T05:06:06;5.40;;;3.40;;
25503;SDS011;13410;52.114;5.718;2023-02-28T05:08:32;6.68;;;3.20;;
25503;SDS011;13410;52.114;5.718;2023-02-28T05:10:58;6.10;;;3.38;;
25503;SDS011;13410;52.114;5.718;2023-02-28T05:13:25;8.05;;;3.30;;
25503;SDS011;13410;52.114;5.718;2023-02-28T05:15:51;16.50;;;7.65;;
25503;SDS011;13410;52.114;5.718;2023-02-28T05:18:17;5.70;;;3.70;;
25503;SDS011;13410;52.114;5.718;2023-02-28T05:20:42;5.72;;;3.65;;
25503;SDS011;13410;52.114;5.718;2023-02-28T05:23:08;4.57;;;3.15;;
25503;SDS011;13410;52.114;5.718;2023-02-28T05:25:37;4.88;;;3.63;;
25503;SDS011;13410;52.114;5.718;2023-02-28T05:28:02;7.65;;;3.63;;
25503;SDS011;13410;52.114;5.718;2023-02-28T05:30:28;5.70;;;4.13;;
25503;SDS011;13410;52.114;5.718;2023-02-28T05:32:54;6.78;;;3.80;;
25503;SDS011;13410;52.114;5.718;2023-02-28T05:35:20;6.97;;;3.72;;
25503;SDS011;13410;52.114;5.718;2023-02-28T05:37:45;5.70;;;3.95;;
25503;SDS011;13410;52.114;5.718;2023-02-28T05:40:11;6.72;;;3.88;;
25503;SDS011;13410;52.114;5.718;2023-02-28T05:42:37;5.18;;;3.30;;
25503;SDS011;13410;52.114;5.718;2023-02-28T05:45:03;5.60;;;3.30;;
25503;SDS011;13410;52.114;5.718;2023-02-28T05:47:30;6.20;;;3.78;;
25503;SDS011;13410;52.114;5.718;2023-02-28T05:49:55;6.20;;;3.30;;
25503;SDS011;13410;52.114;5.718;2023-02-28T05:52:21;5.35;;;3.58;;
25503;SDS011;13410;52.114;5.718;2023-02-28T05:54:47;6.32;;;3.97;;
25503;SDS011;13410;52.114;5.718;2023-02-28T05:57:13;5.82;;;3.75;;
25503;SDS011;13410;52.114;5.718;2023-02-28T05:59:38;6.20;;;3.97;;
25503;SDS011;13410;52.114;5.718;2023-02-28T06:02:05;12.05;;;7.20;;
25503;SDS011;13410;52.114;5.718;2023-02-28T06:04:31;9.75;;;4.43;;
25503;SDS011;13410;52.114;5.718;2023-02-28T06:06:57;18.25;;;5.25;;
25503;SDS011;13410;52.114;5.718;2023-02-28T06:09:22;5.55;;;4.07;;
25503;SDS011;13410;52.114;5.718;2023-02-28T06:11:48;9.98;;;4.38;;
25503;SDS011;13410;52.114;5.718;2023-02-28T06:14:14;8.48;;;4.50;;
25503;SDS011;13410;52.114;5.718;2023-02-28T06:16:41;8.02;;;4.00;;
25503;SDS011;13410;52.114;5.718;2023-02-28T06:19:08;6.88;;;4.80;;
25503;SDS011;13410;52.114;5.718;2023-02-28T06:21:34;7.10;;;4.07;;
25503;SDS011;13410;52.114;5.718;2023-02-28T06:24:00;8.75;;;5.25;;
25503;SDS011;13410;52.114;5.718;2023-02-28T06:26:26;7.25;;;5.28;;
25503;SDS011;13410;52.114;5.718;2023-02-28T06:28:52;10.30;;;4.75;;
25503;SDS011;13410;52.114;5.718;2023-02-28T06:31:18;9.25;;;6.30;;
25503;SDS011;13410;52.114;5.718;2023-02-28T06:33:44;13.98;;;8.60;;
25503;SDS011;13410;52.114;5.718;2023-02-28T06:36:11;8.88;;;6.72;;
25503;SDS011;13410;52.114;5.718;2023-02-28T06:38:38;8.25;;;4.82;;
25503;SDS011;13410;52.114;5.718;2023-02-28T06:41:06;6.80;;;4.10;;
25503;SDS011;13410;52.114;5.718;2023-02-28T06:43:33;5.25;;;3.72;;
25503;SDS011;13410;52.114;5.718;2023-02-28T06:46:05;7.53;;;4.57;;
25503;SDS011;13410;52.114;5.718;2023-02-28T06:48:33;12.20;;;4.28;;
25503;SDS011;13410;52.114;5.718;2023-02-28T06:51:07;5.70;;;3.67;;
25503;SDS011;13410;52.114;5.718;2023-02-28T06:53:34;5.88;;;3.88;;
25503;SDS011;13410;52.114;5.718;2023-02-28T06:56:04;5.80;;;3.78;;
25503;SDS011;13410;52.114;5.718;2023-02-28T06:58:31;5.80;;;4.22;;
25503;SDS011;13410;52.114;5.718;2023-02-28T07:00:57;6.03;;;4.05;;
25503;SDS011;13410;52.114;5.718;2023-02-28T07:03:22;9.10;;;3.80;;
25503;SDS011;13410;52.114;5.718;2023-02-28T07:05:48;8.13;;;4.00;;
25503;SDS011;13410;52.114;5.718;2023-02-28T07:08:13;6.60;;;4.43;;
25503;SDS011;13410;52.114;5.718;2023-02-28T07:10:39;6.38;;;4.32;;
25503;SDS011;13410;52.114;5.718;2023-02-28T07:13:06;9.45;;;4.72;;
25503;SDS011;13410;52.114;5.718;2023-02-28T07:15:33;8.20;;;4.75;;
25503;SDS011;13410;52.114;5.718;2023-02-28T07:17:59;6.75;;;4.80;;
25503;SDS011;13410;52.114;5.718;2023-02-28T07:20:25;6.10;;;3.80;;
25503;SDS011;13410;52.114;5.718;2023-02-28T07:22:50;6.28;;;4.13;;
25503;SDS011;13410;52.114;5.718;2023-02-28T07:25:27;7.22;;;4.60;;
25503;SDS011;13410;52.114;5.718;2023-02-28T07:27:54;8.00;;;4.85;;
25503;SDS011;13410;52.114;5.718;2023-02-28T07:30:20;8.55;;;4.75;;
25503;SDS011;13410;52.114;5.718;2023-02-28T07:32:46;9.35;;;5.40;;
25503;SDS011;13410;52.114;5.718;2023-02-28T07:35:12;11.00;;;5.00;;
25503;SDS011;13410;52.114;5.718;2023-02-28T07:37:40;11.27;;;6.22;;
25503;SDS011;13410;52.114;5.718;2023-02-28T07:40:06;8.68;;;6.18;;
25503;SDS011;13410;52.114;5.718;2023-02-28T07:42:34;9.90;;;6.03;;
25503;SDS011;13410;52.114;5.718;2023-02-28T07:45:00;9.57;;;6.13;;
25503;SDS011;13410;52.114;5.718;2023-02-28T07:47:28;6.95;;;4.78;;
25503;SDS011;13410;52.114;5.718;2023-02-28T07:49:55;6.55;;;4.03;;
25503;SDS011;13410;52.114;5.718;2023-02-28T07:52:20;6.63;;;3.88;;
25503;SDS011;13410;52.114;5.718;2023-02-28T07:54:48;5.85;;;3.60;;
25503;SDS011;13410;52.114;5.718;2023-02-28T07:57:13;5.40;;;3.58;;
25503;SDS011;13410;52.114;5.718;2023-02-28T07:59:39;7.30;;;5.18;;
25503;SDS011;13410;52.114;5.718;2023-02-28T08:02:04;5.53;;;3.33;;
25503;SDS011;13410;52.114;5.718;2023-02-28T08:04:31;4.97;;;3.30;;
25503;SDS011;13410;52.114;5.718;2023-02-28T08:06:57;6.38;;;3.30;;
25503;SDS011;13410;52.114;5.718;2023-02-28T08:09:23;8.68;;;3.70;;
25503;SDS011;13410;52.114;5.718;2023-02-28T08:11:49;6.57;;;3.65;;
25503;SDS011;13410;52.114;5.718;2023-02-28T08:14:14;7.22;;;3.67;;
25503;SDS011;13410;52.114;5.718;2023-02-28T08:16:40;6.00;;;3.60;;
25503;SDS011;13410;52.114;5.718;2023-02-28T08:19:07;4.95;;;3.55;;
25503;SDS011;13410;52.114;5.718;2023-02-28T08:21:33;5.90;;;3.17;;
25503;SDS011;13410;52.114;5.718;2023-02-28T08:23:59;8.75;;;3.80;;
25503;SDS011;13410;52.114;5.718;2023-02-28T08:26:25;6.35;;;3.03;;
25503;SDS011;13410;52.114;5.718;2023-02-28T08:28:51;6.28;;;3.30;;
25503;SDS011;13410;52.114;5.718;2023-02-28T08:31:17;4.30;;;2.63;;
25503;SDS011;13410;52.114;5.718;2023-02-28T08:33:43;2.85;;;1.80;;
25503;SDS011;13410;52.114;5.718;2023-02-28T08:36:09;3.47;;;1.90;;
25503;SDS011;13410;52.114;5.718;2023-02-28T08:38:36;2.58;;;1.90;;
25503;SDS011;13410;52.114;5.718;2023-02-28T08:41:04;3.10;;;1.80;;
25503;SDS011;13410;52.114;5.718;2023-02-28T08:43:32;2.72;;;1.55;;
25503;SDS011;13410;52.114;5.718;2023-02-28T08:45:58;2.50;;;1.58;;
25503;SDS011;13410;52.114;5.718;2023-02-28T08:48:25;2.50;;;1.58;;
25503;SDS011;13410;52.114;5.718;2023-02-28T08:50:58;2.83;;;1.90;;
25503;SDS011;13410;52.114;5.718;2023-02-28T08:53:26;2.85;;;1.40;;
25503;SDS011;13410;52.114;5.718;2023-02-28T08:55:58;2.70;;;1.55;;
25503;SDS011;13410;52.114;5.718;2023-02-28T08:58:25;16.73;;;10.23;;
25503;SDS011;13410;52.114;5.718;2023-02-28T09:00:51;4.63;;;2.38;;
25503;SDS011;13410;52.114;5.718;2023-02-28T09:03:17;7.63;;;4.85;;
25503;SDS011;13410;52.114;5.718;2023-02-28T09:08:38;4.07;;;2.05;;
25503;SDS011;13410;52.114;5.718;2023-02-28T09:11:04;5.78;;;1.90;;
25503;SDS011;13410;52.114;5.718;2023-02-28T09:13:30;2.42;;;1.77;;
25503;SDS011;13410;52.114;5.718;2023-02-28T09:15:57;4.03;;;1.60;;
25503;SDS011;13410;52.114;5.718;2023-02-28T09:18:24;3.28;;;2.40;;
25503;SDS011;13410;52.114;5.718;2023-02-28T09:20:49;5.80;;;2.83;;
25503;SDS011;13410;52.114;5.718;2023-02-28T09:23:15;3.55;;;1.98;;
25503;SDS011;13410;52.114;5.718;2023-02-28T09:25:48;5.93;;;3.60;;
25503;SDS011;13410;52.114;5.718;2023-02-28T09:28:18;5.93;;;2.10;;
25503;SDS011;13410;52.114;5.718;2023-02-28T09:30:45;8.25;;;4.65;;
25503;SDS011;13410;52.114;5.718;2023-02-28T09:33:15;9.68;;;3.00;;
25503;SDS011;13410;52.114;5.718;2023-02-28T09:35:42;3.83;;;2.30;;
25503;SDS011;13410;52.114;5.718;2023-02-28T09:38:08;2.92;;;1.70;;
25503;SDS011;13410;52.114;5.718;2023-02-28T09:40:39;6.25;;;2.45;;
25503;SDS011;13410;52.114;5.718;2023-02-28T09:43:09;3.33;;;2.00;;
25503;SDS011;13410;52.114;5.718;2023-02-28T09:45:39;5.03;;;2.90;;
25503;SDS011;13410;52.114;5.718;2023-02-28T09:48:10;2.03;;;1.42;;
25503;SDS011;13410;52.114;5.718;2023-02-28T09:50:45;2.83;;;1.70;;
25503;SDS011;13410;52.114;5.718;2023-02-28T09:53:19;2.00;;;1.33;;
25503;SDS011;13410;52.114;5.718;2023-02-28T09:55:59;2.55;;;1.58;;
25503;SDS011;13410;52.114;5.718;2023-02-28T09:58:44;4.32;;;1.60;;
25503;SDS011;13410;52.114;5.718;2023-02-28T10:06:53;5.80;;;2.60;;
25503;SDS011;13410;52.114;5.718;2023-02-28T10:11:48;3.42;;;1.80;;
25503;SDS011;13410;52.114;5.718;2023-02-28T10:14:21;3.92;;;2.83;;
25503;SDS011;13410;52.114;5.718;2023-02-28T10:16:53;4.75;;;1.70;;
25503;SDS011;13410;52.114;5.718;2023-02-28T10:19:30;2.50;;;1.60;;
25503;SDS011;13410;52.114;5.718;2023-02-28T10:24:51;9.23;;;4.80;;
25503;SDS011;13410;52.114;5.718;2023-02-28T10:29:50;13.65;;;7.43;;
25503;SDS011;13410;52.114;5.718;2023-02-28T10:32:23;15.15;;;7.57;;
25503;SDS011;13410;52.114;5.718;2023-02-28T10:35:10;2.50;;;1.60;;
25503;SDS011;13410;52.114;5.718;2023-02-28T10:37:51;4.47;;;1.65;;
25503;SDS011;13410;52.114;5.718;2023-02-28T10:45:31;9.73;;;4.82;;
25503;SDS011;13410;52.114;5.718;2023-02-28T10:48:04;5.13;;;1.63;;
25503;SDS011;13410;52.114;5.718;2023-02-28T10:50:52;2.10;;;1.40;;
25503;SDS011;13410;52.114;5.718;2023-02-28T10:55:58;2.50;;;1.50;;
25503;SDS011;13410;52.114;5.718;2023-02-28T10:58:50;4.32;;;2.28;;
25503;SDS011;13410;52.114;5.718;2023-02-28T11:04:20;7.30;;;3.15;;
25503;SDS011;13410;52.114;5.718;2023-02-28T11:07:01;5.10;;;3.00;;
25503;SDS011;13410;52.114;5.718;2023-02-28T11:09:39;2.50;;;1.67;;
25503;SDS011;13410;52.114;5.718;2023-02-28T11:12:08;4.97;;;3.40;;
25503;SDS011;13410;52.114;5.718;2023-02-28T11:14:55;3.58;;;2.10;;
25503;SDS011;13410;52.114;5.718;2023-02-28T11:17:26;8.50;;;4.90;;
25503;SDS011;13410;52.114;5.718;2023-02-28T11:19:55;3.78;;;1.67;;
25503;SDS011;13410;52.114;5.718;2023-02-28T11:22:24;2.33;;;1.73;;
25503;SDS011;13410;52.114;5.718;2023-02-28T11:24:57;3.28;;;2.10;;
25503;SDS011;13410;52.114;5.718;2023-02-28T11:29:55;2.45;;;1.75;;
25503;SDS011;13410;52.114;5.718;2023-02-28T11:32:23;2.83;;;1.50;;
25503;SDS011;13410;52.114;5.718;2023-02-28T11:35:36;4.05;;;1.60;;
25503;SDS011;13410;52.114;5.718;2023-02-28T11:37:37;2.53;;;1.58;;
25503;SDS011;13410;52.114;5.718;2023-02-28T11:40:16;2.88;;;1.30;;
25503;SDS011;13410;52.114;5.718;2023-02-28T11:43:01;2.03;;;1.50;;
25503;SDS011;13410;52.114;5.718;2023-02-28T11:45:44;3.45;;;1.45;;
25503;SDS011;13410;52.114;5.718;2023-02-28T11:48:27;2.58;;;1.70;;
25503;SDS011;13410;52.114;5.718;2023-02-28T11:51:15;2.33;;;1.70;;
25503;SDS011;13410;52.114;5.718;2023-02-28T11:56:36;4.00;;;1.90;;
25503;SDS011;13410;52.114;5.718;2023-02-28T12:10:22;4.25;;;1.75;;
25503;SDS011;13410;52.114;5.718;2023-02-28T12:13:01;3.28;;;1.77;;
25503;SDS011;13410;52.114;5.718;2023-02-28T12:27:05;2.80;;;2.20;;
25503;SDS011;13410;52.114;5.718;2023-02-28T12:32:32;3.03;;;2.00;;
25503;SDS011;13410;52.114;5.718;2023-02-28T12:35:19;1.90;;;1.70;;
25503;SDS011;13410;52.114;5.718;2023-02-28T12:40:23;3.05;;;2.10;;
25503;SDS011;13410;52.114;5.718;2023-02-28T12:43:03;2.83;;;1.95;;
25503;SDS011;13410;52.114;5.718;2023-02-28T12:45:39;3.35;;;2.03;;
25503;SDS011;13410;52.114;5.718;2023-02-28T12:48:10;3.08;;;1.98;;
25503;SDS011;13410;52.114;5.718;2023-02-28T12:50:41;5.07;;;3.13;;
25503;SDS011;13410;52.114;5.718;2023-02-28T12:53:14;4.15;;;2.30;;
25503;SDS011;13410;52.114;5.718;2023-02-28T12:58:54;3.28;;;2.28;;
25503;SDS011;13410;52.114;5.718;2023-02-28T13:10:02;2.83;;;1.80;;
25503;SDS011;13410;52.114;5.718;2023-02-28T13:12:31;3.00;;;1.80;;
25503;SDS011;13410;52.114;5.718;2023-02-28T13:17:37;3.33;;;2.00;;
25503;SDS011;13410;52.114;5.718;2023-02-28T13:20:14;4.25;;;2.00;;
25503;SDS011;13410;52.114;5.718;2023-02-28T13:22:43;4.25;;;2.20;;
25503;SDS011;13410;52.114;5.718;2023-02-28T13:25:55;2.53;;;1.85;;
25503;SDS011;13410;52.114;5.718;2023-02-28T13:27:58;3.08;;;2.10;;
25503;SDS011;13410;52.114;5.718;2023-02-28T13:38:55;4.60;;;2.15;;
25503;SDS011;13410;52.114;5.718;2023-02-28T13:44:02;5.82;;;2.38;;
25503;SDS011;13410;52.114;5.718;2023-02-28T13:46:28;3.38;;;1.98;;
25503;SDS011;13410;52.114;5.718;2023-02-28T13:48:54;3.13;;;1.77;;
25503;SDS011;13410;52.114;5.718;2023-02-28T13:51:39;5.00;;;2.10;;
25503;SDS011;13410;52.114;5.718;2023-02-28T13:54:16;3.22;;;2.30;;
25503;SDS011;13410;52.114;5.718;2023-02-28T13:57:07;2.05;;;1.70;;
25503;SDS011;13410;52.114;5.718;2023-02-28T14:00:04;5.25;;;2.10;;
25503;SDS011;13410;52.114;5.718;2023-02-28T14:03:01;3.08;;;2.08;;
25503;SDS011;13410;52.114;5.718;2023-02-28T14:05:29;3.70;;;2.40;;
25503;SDS011;13410;52.114;5.718;2023-02-28T14:07:58;5.70;;;2.13;;
25503;SDS011;13410;52.114;5.718;2023-02-28T14:10:30;5.07;;;2.53;;
25503;SDS011;13410;52.114;5.718;2023-02-28T14:15:38;6.38;;;2.30;;
25503;SDS011;13410;52.114;5.718;2023-02-28T14:18:14;4.07;;;1.90;;
25503;SDS011;13410;52.114;5.718;2023-02-28T14:20:54;3.63;;;2.33;;
25503;SDS011;13410;52.114;5.718;2023-02-28T14:26:19;2.72;;;2.08;;
25503;SDS011;13410;52.114;5.718;2023-02-28T14:31:41;2.95;;;2.03;;
25503;SDS011;13410;52.114;5.718;2023-02-28T14:34:29;4.05;;;2.08;;
25503;SDS011;13410;52.114;5.718;2023-02-28T14:37:05;3.15;;;2.00;;
25503;SDS011;13410;52.114;5.718;2023-02-28T14:39:35;3.10;;;2.08;;
25503;SDS011;13410;52.114;5.718;2023-02-28T14:42:01;3.53;;;2.10;;
25503;SDS011;13410;52.114;5.718;2023-02-28T14:44:29;3.90;;;2.00;;
25503;SDS011;13410;52.114;5.718;2023-02-28T14:46:56;2.83;;;1.95;;
25503;SDS011;13410;52.114;5.718;2023-02-28T14:49:32;4.28;;;2.13;;
25503;SDS011;13410;52.114;5.718;2023-02-28T14:52:03;3.97;;;2.22;;
25503;SDS011;13410;52.114;5.718;2023-02-28T14:54:52;3.23;;;2.50;;
25503;SDS011;13410;52.114;5.718;2023-02-28T14:57:40;3.55;;;2.03;;
25503;SDS011;13410;52.114;5.718;2023-02-28T15:00:29;3.58;;;2.38;;
25503;SDS011;13410;52.114;5.718;2023-02-28T15:02:56;5.72;;;2.10;;
25503;SDS011;13410;52.114;5.718;2023-02-28T15:05:25;4.50;;;2.08;;
25503;SDS011;13410;52.114;5.718;2023-02-28T15:08:00;3.25;;;2.58;;
25503;SDS011;13410;52.114;5.718;2023-02-28T15:10:38;2.60;;;1.80;;
25503;SDS011;13410;52.114;5.718;2023-02-28T15:13:07;5.57;;;2.58;;
25503;SDS011;13410;52.114;5.718;2023-02-28T15:15:45;4.07;;;2.20;;
25503;SDS011;13410;52.114;5.718;2023-02-28T15:18:29;2.38;;;1.75;;
25503;SDS011;13410;52.114;5.718;2023-02-28T15:20:56;3.88;;;2.42;;
25503;SDS011;13410;52.114;5.718;2023-02-28T15:23:26;2.85;;;1.85;;
25503;SDS011;13410;52.114;5.718;2023-02-28T15:25:52;4.65;;;2.47;;
25503;SDS011;13410;52.114;5.718;2023-02-28T15:28:19;2.95;;;2.00;;
25503;SDS011;13410;52.114;5.718;2023-02-28T15:30:51;3.25;;;1.90;;
25503;SDS011;13410;52.114;5.718;2023-02-28T15:33:25;4.43;;;2.25;;
25503;SDS011;13410;52.114;5.718;2023-02-28T15:38:36;4.25;;;2.35;;
25503;SDS011;13410;52.114;5.718;2023-02-28T15:41:01;3.95;;;2.40;;
25503;SDS011;13410;52.114;5.718;2023-02-28T15:43:36;3.33;;;2.10;;
25503;SDS011;13410;52.114;5.718;2023-02-28T15:46:11;3.60;;;1.92;;
25503;SDS011;13410;52.114;5.718;2023-02-28T15:48:50;5.50;;;2.88;;
25503;SDS011;13410;52.114;5.718;2023-02-28T15:51:22;4.75;;;1.70;;
25503;SDS011;13410;52.114;5.718;2023-02-28T15:53:54;4.00;;;1.77;;
25503;SDS011;13410;52.114;5.718;2023-02-28T15:58:57;2.92;;;2.13;;
25503;SDS011;13410;52.114;5.718;2023-02-28T16:01:29;2.53;;;1.67;;
25503;SDS011;13410;52.114;5.718;2023-02-28T16:03:59;3.33;;;1.80;;
25503;SDS011;13410;52.114;5.718;2023-02-28T16:06:40;2.38;;;1.55;;
25503;SDS011;13410;52.114;5.718;2023-02-28T16:09:11;2.03;;;1.10;;
25503;SDS011;13410;52.114;5.718;2023-02-28T16:11:39;3.20;;;1.77;;
25503;SDS011;13410;52.114;5.718;2023-02-28T16:14:11;2.55;;;1.63;;
25503;SDS011;13410;52.114;5.718;2023-02-28T16:19:09;4.40;;;1.80;;
25503;SDS011;13410;52.114;5.718;2023-02-28T16:21:34;3.13;;;1.95;;
25503;SDS011;13410;52.114;5.718;2023-02-28T16:24:00;5.57;;;2.40;;
25503;SDS011;13410;52.114;5.718;2023-02-28T16:26:25;2.85;;;2.03;;
25503;SDS011;13410;52.114;5.718;2023-02-28T16:28:53;4.55;;;2.45;;
25503;SDS011;13410;52.114;5.718;2023-02-28T16:31:19;2.85;;;2.03;;
25503;SDS011;13410;52.114;5.718;2023-02-28T16:33:45;3.00;;;2.10;;
25503;SDS011;13410;52.114;5.718;2023-02-28T16:36:18;3.40;;;1.90;;
25503;SDS011;13410;52.114;5.718;2023-02-28T16:38:46;3.22;;;2.13;;
25503;SDS011;13410;52.114;5.718;2023-02-28T16:41:12;2.92;;;1.90;;
25503;SDS011;13410;52.114;5.718;2023-02-28T16:43:46;4.63;;;2.15;;
25503;SDS011;13410;52.114;5.718;2023-02-28T16:46:14;3.85;;;2.08;;
25503;SDS011;13410;52.114;5.718;2023-02-28T16:48:41;2.90;;;1.98;;
25503;SDS011;13410;52.114;5.718;2023-02-28T16:51:11;3.45;;;2.05;;
25503;SDS011;13410;52.114;5.718;2023-02-28T16:53:40;2.38;;;1.90;;
25503;SDS011;13410;52.114;5.718;2023-02-28T16:56:09;3.55;;;2.20;;
25503;SDS011;13410;52.114;5.718;2023-02-28T16:58:43;2.90;;;2.33;;
25503;SDS011;13410;52.114;5.718;2023-02-28T17:01:09;3.38;;;2.15;;
25503;SDS011;13410;52.114;5.718;2023-02-28T17:03:35;2.97;;;2.17;;
25503;SDS011;13410;52.114;5.718;2023-02-28T17:06:01;4.68;;;2.60;;
25503;SDS011;13410;52.114;5.718;2023-02-28T17:08:27;3.78;;;2.47;;
25503;SDS011;13410;52.114;5.718;2023-02-28T17:10:54;4.20;;;2.60;;
25503;SDS011;13410;52.114;5.718;2023-02-28T17:13:20;4.75;;;2.60;;